createdAt,value
2016-10-29T00:01:00.013Z,929.16
2016-10-29T00:02:12.924Z,929.18
2016-10-29T00:03:26.466Z,929.33
2016-10-29T00:04:38.416Z,929.27
2016-10-29T00:05:52.024Z,929.32
2016-10-29T00:07:04.567Z,929.29
2016-10-29T00:08:17.575Z,929.31
2016-10-29T00:09:30.071Z,929.36
2016-10-29T00:10:42.596Z,929.39
2016-10-29T00:11:55.082Z,929.41
2016-10-29T00:13:08.092Z,929.47
2016-10-29T00:14:21.162Z,929.51
2016-10-29T00:15:34.082Z,929.5
2016-10-29T00:16:47.683Z,929.58
2016-10-29T00:18:00.721Z,929.57
2016-10-29T00:19:12.291Z,929.62
2016-10-29T00:20:25.342Z,929.61
2016-10-29T00:21:38.940Z,929.8
2016-10-29T00:24:37.096Z,929.58
2016-10-29T00:25:50.592Z,929.61
2016-10-29T00:27:03.160Z,929.59
2016-10-29T00:28:16.815Z,929.71
2016-10-29T00:29:29.806Z,929.75
2016-10-29T00:30:42.748Z,929.72
2016-10-29T00:31:55.705Z,929.71
2016-10-29T00:33:40.358Z,929.77
2016-10-29T00:34:53.861Z,929.84
2016-10-29T00:36:06.371Z,929.74
2016-10-29T00:37:19.348Z,929.81
2016-10-29T00:38:31.807Z,929.77
2016-10-29T00:39:44.243Z,929.85
2016-10-29T00:40:57.752Z,929.81
2016-10-29T00:42:10.742Z,930.03
2016-10-29T00:43:24.228Z,929.9
2016-10-29T00:44:37.659Z,929.88
2016-10-29T00:45:50.696Z,929.92
2016-10-29T00:47:04.201Z,929.77
2016-10-29T00:48:16.638Z,929.87
2016-10-29T00:49:29.602Z,929.93
2016-10-29T00:50:42.607Z,929.81
2016-10-29T00:51:55.097Z,929.87
2016-10-29T00:53:08.068Z,929.85
2016-10-29T00:54:21.036Z,929.82
2016-10-29T00:55:34.036Z,929.82
2016-10-29T00:56:47.052Z,929.81
2016-10-29T00:58:00.642Z,929.81
2016-10-29T00:59:13.132Z,929.89
2016-10-29T01:00:26.632Z,929.84
2016-10-29T01:01:40.162Z,929.87
2016-10-29T01:02:53.705Z,929.88
2016-10-29T01:04:06.723Z,930
2016-10-29T01:05:20.279Z,929.96
2016-10-29T01:06:32.866Z,929.91
2016-10-29T01:07:45.362Z,930
2016-10-29T01:08:58.346Z,929.95
2016-10-29T01:10:10.787Z,929.95
2016-10-29T01:11:24.323Z,929.9
2016-10-29T01:12:36.216Z,929.87
2016-10-29T01:13:49.240Z,929.9
2016-10-29T01:15:02.221Z,929.91
2016-10-29T01:16:15.713Z,929.93
2016-10-29T01:17:28.155Z,929.9
2016-10-29T01:18:41.164Z,929.87
2016-10-29T01:19:54.167Z,930.03
2016-10-29T01:21:06.659Z,929.95
2016-10-29T01:22:20.203Z,929.98
2016-10-29T01:23:33.669Z,929.96
2016-10-29T01:24:46.679Z,929.93
2016-10-29T01:26:00.198Z,929.97
2016-10-29T01:27:13.196Z,929.99
2016-10-29T01:28:26.692Z,929.95
2016-10-29T01:29:39.713Z,929.96
2016-10-29T01:30:52.749Z,929.93
2016-10-29T01:32:06.283Z,929.85
2016-10-29T01:33:19.778Z,929.99
2016-10-29T01:34:32.823Z,929.9
2016-10-29T01:35:45.889Z,929.98
2016-10-29T01:36:58.884Z,929.92
2016-10-29T01:38:12.494Z,929.96
2016-10-29T01:39:25.524Z,929.98
2016-10-29T01:40:38.549Z,929.97
2016-10-29T01:41:52.061Z,930.01
2016-10-29T01:43:05.039Z,929.95
2016-10-29T01:44:17.449Z,929.94
2016-10-29T01:45:30.919Z,929.94
2016-10-29T01:46:44.479Z,929.92
2016-10-29T01:47:57.502Z,930.08
2016-10-29T01:49:10.479Z,929.95
2016-10-29T01:50:21.872Z,929.98
2016-10-29T01:51:34.907Z,929.99
2016-10-29T01:52:48.507Z,929.91
2016-10-29T01:54:01.509Z,929.94
2016-10-29T01:55:14.507Z,929.96
2016-10-29T01:56:27.934Z,930.07
2016-10-29T01:57:40.939Z,930.11
2016-10-29T01:58:54.462Z,930.11
2016-10-29T02:00:07.470Z,930.07
2016-10-29T02:01:21.061Z,930.08
2016-10-29T02:02:34.573Z,930.03
2016-10-29T02:03:48.177Z,930
2016-10-29T02:05:01.264Z,929.97
2016-10-29T02:06:14.289Z,930.2
2016-10-29T02:07:26.233Z,929.99
2016-10-29T02:08:39.286Z,929.98
2016-10-29T02:09:51.725Z,929.93
2016-10-29T02:11:04.765Z,929.99
2016-10-29T02:12:18.311Z,930.02
2016-10-29T02:13:30.270Z,930.04
2016-10-29T02:14:43.280Z,929.97
2016-10-29T02:15:56.361Z,930.04
2016-10-29T02:17:09.868Z,930.05
2016-10-29T02:18:22.353Z,930.06
2016-10-29T02:19:34.794Z,930.06
2016-10-29T02:20:49.146Z,930.07
2016-10-29T02:22:02.123Z,930.08
2016-10-29T02:23:15.607Z,930.01
2016-10-29T02:24:29.108Z,930.04
2016-10-29T02:25:42.093Z,930.14
2016-10-29T02:26:55.579Z,930.18
2016-10-29T02:28:08.002Z,930.08
2016-10-29T02:29:21.514Z,930.16
2016-10-29T02:30:33.459Z,930.17
2016-10-29T02:31:45.939Z,930.13
2016-10-29T02:32:57.871Z,930.3
2016-10-29T02:34:10.369Z,930.05
2016-10-29T02:35:22.859Z,930.09
2016-10-29T02:36:36.364Z,930.14
2016-10-29T02:37:49.856Z,930.14
2016-10-29T02:39:02.830Z,930.23
2016-10-29T02:40:15.306Z,930.28
2016-10-29T02:41:28.881Z,930.08
2016-10-29T02:42:41.857Z,930.12
2016-10-29T02:43:54.796Z,930.12
2016-10-29T02:45:07.871Z,930.16
2016-10-29T02:46:20.366Z,930
2016-10-29T02:47:32.823Z,930.16
2016-10-29T02:48:45.904Z,930.05
2016-10-29T02:49:58.879Z,930.11
2016-10-29T02:51:11.359Z,930.13
2016-10-29T02:52:24.413Z,930.04
2016-10-29T02:53:37.396Z,930.04
2016-10-29T02:54:50.367Z,930.06
2016-10-29T02:56:03.856Z,930.08
2016-10-29T02:57:17.342Z,930.1
2016-10-29T02:58:29.261Z,930.1
2016-10-29T02:59:42.273Z,930.08
2016-10-29T03:00:55.795Z,930.04
2016-10-29T03:02:09.328Z,930.05
2016-10-29T03:03:21.749Z,930.08
2016-10-29T03:04:35.328Z,930.27
2016-10-29T03:05:48.924Z,930.03
2016-10-29T03:07:01.495Z,929.94
2016-10-29T03:08:14.536Z,930.1
2016-10-29T03:09:26.476Z,930.08
2016-10-29T03:10:38.952Z,930.07
2016-10-29T03:11:52.485Z,930.06
2016-10-29T03:13:05.987Z,930
2016-10-29T03:14:19.492Z,930.06
2016-10-29T03:15:33.030Z,929.99
2016-10-29T03:16:45.515Z,930.02
2016-10-29T03:17:58.586Z,930.06
2016-10-29T03:19:12.127Z,930.01
2016-10-29T03:20:24.615Z,930.11
2016-10-29T03:21:37.660Z,930.14
2016-10-29T03:22:51.218Z,930.1
2016-10-29T03:24:04.303Z,930.04
2016-10-29T03:25:17.367Z,930.04
2016-10-29T03:26:30.875Z,930.29
2016-10-29T03:27:44.386Z,930.11
2016-10-29T03:28:57.501Z,930
2016-10-29T03:30:10.496Z,929.98
2016-10-29T03:31:22.979Z,929.97
2016-10-29T03:32:36.466Z,929.97
2016-10-29T03:33:49.985Z,930.03
2016-10-29T03:35:02.946Z,929.99
2016-10-29T03:36:15.404Z,929.94
2016-10-29T03:37:28.897Z,929.98
2016-10-29T03:38:41.887Z,929.95
2016-10-29T03:39:54.931Z,929.91
2016-10-29T03:41:07.430Z,929.93
2016-10-29T03:42:19.920Z,929.8
2016-10-29T03:43:32.933Z,929.87
2016-10-29T03:44:45.420Z,929.85
2016-10-29T03:45:58.437Z,929.91
2016-10-29T03:47:10.399Z,929.87
2016-10-29T03:48:23.950Z,929.9
2016-10-29T03:49:36.922Z,929.94
2016-10-29T03:50:49.921Z,929.92
2016-10-29T03:52:02.410Z,929.82
2016-10-29T03:53:15.365Z,929.87
2016-10-29T03:54:28.890Z,929.87
2016-10-29T03:55:41.447Z,929.77
2016-10-29T03:56:54.411Z,929.82
2016-10-29T03:58:07.937Z,929.78
2016-10-29T03:59:20.902Z,929.76
2016-10-29T04:00:33.925Z,929.79
2016-10-29T04:01:47.546Z,929.76
2016-10-29T04:03:00.489Z,929.8
2016-10-29T04:04:13.537Z,929.76
2016-10-29T04:05:26.565Z,929.79
2016-10-29T04:06:39.566Z,929.84
2016-10-29T04:07:53.100Z,929.72
2016-10-29T04:09:06.041Z,929.77
2016-10-29T04:10:19.010Z,929.78
2016-10-29T04:11:32.002Z,929.74
2016-10-29T04:12:45.450Z,929.76
2016-10-29T04:13:58.531Z,929.76
2016-10-29T04:15:12.099Z,929.82
2016-10-29T04:16:24.596Z,929.68
2016-10-29T04:17:38.047Z,929.68
2016-10-29T04:18:50.515Z,929.68
2016-10-29T04:20:03.967Z,929.67
2016-10-29T04:21:17.028Z,929.64
2016-10-29T04:22:29.472Z,929.63
2016-10-29T04:23:43.085Z,929.64
2016-10-29T04:24:56.682Z,929.5
2016-10-29T04:26:09.682Z,929.59
2016-10-29T04:27:22.128Z,929.67
2016-10-29T04:28:35.075Z,929.5
2016-10-29T04:29:48.536Z,929.51
2016-10-29T04:31:01.081Z,929.49
2016-10-29T04:32:14.568Z,929.57
2016-10-29T04:33:28.111Z,929.6
2016-10-29T04:34:41.634Z,929.47
2016-10-29T04:35:54.161Z,929.42
2016-10-29T04:37:06.712Z,929.36
2016-10-29T04:38:19.719Z,929.53
2016-10-29T04:39:33.200Z,929.44
2016-10-29T04:40:46.734Z,929.39
2016-10-29T04:41:59.673Z,929.44
2016-10-29T04:43:12.639Z,929.45
2016-10-29T04:44:25.114Z,929.43
2016-10-29T04:45:38.605Z,929.32
2016-10-29T04:46:51.592Z,929.39
2016-10-29T04:48:04.568Z,929.36
2016-10-29T04:49:17.592Z,929.38
2016-10-29T04:50:31.272Z,929.37
2016-10-29T04:51:44.237Z,929.4
2016-10-29T04:52:57.721Z,929.41
2016-10-29T04:54:10.201Z,929.46
2016-10-29T04:55:22.632Z,929.37
2016-10-29T04:56:35.116Z,929.36
2016-10-29T04:57:48.643Z,929.34
2016-10-29T04:59:01.109Z,929.35
2016-10-29T05:00:14.136Z,929.36
2016-10-29T05:01:26.649Z,929.36
2016-10-29T05:02:39.624Z,929.32
2016-10-29T05:03:52.613Z,929.33
2016-10-29T05:05:06.157Z,929.3
2016-10-29T05:06:19.690Z,929.26
2016-10-29T05:07:32.669Z,929.21
2016-10-29T05:08:46.167Z,929.25
2016-10-29T05:09:58.641Z,929.22
2016-10-29T05:11:11.641Z,929.22
2016-10-29T05:12:25.193Z,929.23
2016-10-29T05:13:37.736Z,929.22
2016-10-29T05:14:50.777Z,929.21
2016-10-29T05:16:03.304Z,929.17
2016-10-29T05:17:16.297Z,929.23
2016-10-29T05:18:29.328Z,929.25
2016-10-29T05:19:42.856Z,929.19
2016-10-29T05:20:55.382Z,929.21
2016-10-29T05:22:08.872Z,929.28
2016-10-29T05:23:22.394Z,929.24
2016-10-29T05:24:35.961Z,929.22
2016-10-29T05:25:49.468Z,929.28
2016-10-29T05:27:02.430Z,929.36
2016-10-29T05:28:15.481Z,929.19
2016-10-29T05:29:27.940Z,929.15
2016-10-29T05:30:41.457Z,929.12
2016-10-29T05:31:52.890Z,929.11
2016-10-29T05:33:05.924Z,929.16
2016-10-29T05:34:18.929Z,929.2
2016-10-29T05:35:32.454Z,929.16
2016-10-29T05:36:45.392Z,929.21
2016-10-29T05:37:58.897Z,929.08
2016-10-29T05:39:12.347Z,929.08
2016-10-29T05:40:24.876Z,929.14
2016-10-29T05:41:37.335Z,929.13
2016-10-29T05:42:50.805Z,929.13
2016-10-29T05:44:04.352Z,929.14
2016-10-29T05:45:17.901Z,929.11
2016-10-29T05:46:30.878Z,929.13
2016-10-29T05:47:43.353Z,929.09
2016-10-29T05:48:56.394Z,929.16
2016-10-29T05:50:09.370Z,929.1
2016-10-29T05:51:22.377Z,929.08
2016-10-29T05:52:35.353Z,929.09
2016-10-29T05:53:48.308Z,929.27
2016-10-29T05:55:01.257Z,929.06
2016-10-29T05:56:14.265Z,929.14
2016-10-29T05:57:27.814Z,929.13
2016-10-29T05:58:41.355Z,929.12
2016-10-29T05:59:54.798Z,929.11
2016-10-29T06:01:07.778Z,929.16
2016-10-29T06:02:20.753Z,929.25
2016-10-29T06:03:33.810Z,929.2
2016-10-29T06:04:46.819Z,929.22
2016-10-29T06:05:59.877Z,929.1
2016-10-29T06:07:13.484Z,929.27
2016-10-29T06:08:26.476Z,929.1
2016-10-29T06:09:39.490Z,929.12
2016-10-29T06:10:51.946Z,929.09
2016-10-29T06:12:04.906Z,929.16
2016-10-29T06:13:17.913Z,929.15
2016-10-29T06:14:30.911Z,929.11
2016-10-29T06:15:44.459Z,929.11
2016-10-29T06:16:56.961Z,929.13
2016-10-29T06:18:10.472Z,929.12
2016-10-29T06:19:23.382Z,929.12
2016-10-29T06:20:36.483Z,929.12
2016-10-29T06:21:49.453Z,929.09
2016-10-29T06:23:02.467Z,929.12
2016-10-29T06:24:16.028Z,929.18
2016-10-29T06:25:29.643Z,929.18
2016-10-29T06:26:42.691Z,929.19
2016-10-29T06:27:55.727Z,929.16
2016-10-29T06:29:08.709Z,929.19
2016-10-29T06:30:21.668Z,929.22
2016-10-29T06:31:35.258Z,929.3
2016-10-29T06:32:48.838Z,929.27
2016-10-29T06:34:01.856Z,929.31
2016-10-29T06:35:14.860Z,929.31
2016-10-29T06:36:27.891Z,929.32
2016-10-29T06:37:40.341Z,929.22
2016-10-29T06:38:53.380Z,929.26
2016-10-29T06:40:06.358Z,929.29
2016-10-29T06:41:19.884Z,929.31
2016-10-29T06:42:32.876Z,929.32
2016-10-29T06:43:46.361Z,929.35
2016-10-29T06:44:59.879Z,929.36
2016-10-29T06:46:12.871Z,929.36
2016-10-29T06:47:24.801Z,929.38
2016-10-29T06:48:37.232Z,929.37
2016-10-29T06:49:50.737Z,929.36
2016-10-29T06:51:03.240Z,929.37
2016-10-29T06:52:16.755Z,929.34
2016-10-29T06:53:30.283Z,929.35
2016-10-29T06:54:43.271Z,929.39
2016-10-29T06:55:56.823Z,929.55
2016-10-29T06:57:10.421Z,929.35
2016-10-29T06:58:22.876Z,929.41
2016-10-29T06:59:35.393Z,929.41
2016-10-29T07:00:48.381Z,929.37
2016-10-29T07:02:00.793Z,929.35
2016-10-29T07:03:14.283Z,929.32
2016-10-29T07:04:27.817Z,929.41
2016-10-29T07:05:40.797Z,929.39
2016-10-29T07:06:54.293Z,929.43
2016-10-29T07:08:07.289Z,929.4
2016-10-29T07:09:19.232Z,929.49
2016-10-29T07:10:32.254Z,929.44
2016-10-29T07:11:45.242Z,929.45
2016-10-29T07:12:58.767Z,929.42
2016-10-29T07:14:12.326Z,929.5
2016-10-29T07:15:25.830Z,929.55
2016-10-29T07:16:38.887Z,929.52
2016-10-29T07:17:51.346Z,929.51
2016-10-29T07:19:04.327Z,929.44
2016-10-29T07:20:17.334Z,929.48
2016-10-29T07:21:30.332Z,929.34
2016-10-29T07:22:43.339Z,929.35
2016-10-29T07:23:56.255Z,929.42
2016-10-29T07:25:09.233Z,929.46
2016-10-29T07:26:22.215Z,929.38
2016-10-29T07:27:35.754Z,929.42
2016-10-29T07:28:48.236Z,929.42
2016-10-29T07:30:01.760Z,929.42
2016-10-29T07:31:14.244Z,929.43
2016-10-29T07:32:27.826Z,929.43
2016-10-29T07:33:40.295Z,929.4
2016-10-29T07:34:52.751Z,929.4
2016-10-29T07:36:05.781Z,929.41
2016-10-29T07:37:19.319Z,929.44
2016-10-29T07:38:32.866Z,929.45
2016-10-29T07:39:45.357Z,929.45
2016-10-29T07:40:57.885Z,929.47
2016-10-29T07:42:11.370Z,929.46
2016-10-29T07:43:24.931Z,929.5
2016-10-29T07:44:36.848Z,929.5
2016-10-29T07:45:50.341Z,929.52
2016-10-29T07:47:03.921Z,929.52
2016-10-29T07:48:16.926Z,929.49
2016-10-29T07:49:29.928Z,929.48
2016-10-29T07:50:43.380Z,929.54
2016-10-29T07:51:56.411Z,929.51
2016-10-29T07:53:09.360Z,929.46
2016-10-29T07:54:21.784Z,929.58
2016-10-29T07:55:34.791Z,929.49
2016-10-29T07:56:46.723Z,929.48
2016-10-29T07:57:59.195Z,929.47
2016-10-29T07:59:11.655Z,929.48
2016-10-29T08:00:24.629Z,929.47
2016-10-29T08:01:38.192Z,929.63
2016-10-29T08:02:51.727Z,929.6
2016-10-29T08:04:05.261Z,929.68
2016-10-29T08:05:17.694Z,929.62
2016-10-29T08:06:30.712Z,929.66
2016-10-29T08:07:44.244Z,929.6
2016-10-29T08:08:57.272Z,929.63
2016-10-29T08:10:10.816Z,929.61
2016-10-29T08:11:23.844Z,929.65
2016-10-29T08:12:36.834Z,929.65
2016-10-29T08:13:50.409Z,929.62
2016-10-29T08:15:03.382Z,929.69
2016-10-29T08:16:16.937Z,929.7
2016-10-29T08:17:29.860Z,929.72
2016-10-29T08:18:43.365Z,929.73
2016-10-29T08:19:56.936Z,929.74
2016-10-29T08:21:09.887Z,929.75
2016-10-29T08:22:23.393Z,929.79
2016-10-29T08:23:36.373Z,929.81
2016-10-29T08:24:48.809Z,929.85
2016-10-29T08:26:02.341Z,929.85
2016-10-29T08:27:15.344Z,929.84
2016-10-29T08:28:28.907Z,929.9
2016-10-29T08:29:41.362Z,929.95
2016-10-29T08:30:54.406Z,929.95
2016-10-29T08:32:06.926Z,929.95
2016-10-29T08:33:19.915Z,929.93
2016-10-29T08:34:33.490Z,929.98
2016-10-29T08:35:46.977Z,929.98
2016-10-29T08:37:00.013Z,930
2016-10-29T08:38:12.983Z,930.04
2016-10-29T08:39:25.971Z,930.04
2016-10-29T08:40:39.483Z,930.07
2016-10-29T08:41:52.528Z,930.07
2016-10-29T08:43:05.564Z,930.09
2016-10-29T08:44:19.150Z,930.09
2016-10-29T08:45:32.756Z,930.11
2016-10-29T08:46:45.746Z,930.19
2016-10-29T08:47:58.825Z,930.08
2016-10-29T08:49:11.837Z,930.09
2016-10-29T08:50:25.379Z,930.16
2016-10-29T08:51:38.890Z,930.16
2016-10-29T08:52:52.463Z,930.26
2016-10-29T08:54:05.082Z,930.35
2016-10-29T08:55:18.089Z,930.47
2016-10-29T08:56:31.088Z,930.25
2016-10-29T08:57:44.139Z,930.27
2016-10-29T08:58:57.128Z,930.33
2016-10-29T09:00:10.115Z,930.29
2016-10-29T09:01:23.697Z,930.5
2016-10-29T09:02:36.708Z,930.43
2016-10-29T09:03:49.743Z,930.48
2016-10-29T09:05:02.216Z,930.33
2016-10-29T09:06:46.877Z,930.34
2016-10-29T09:07:59.369Z,930.57
2016-10-29T09:09:12.918Z,930.38
2016-10-29T09:10:26.511Z,930.57
2016-10-29T09:11:40.078Z,930.6
2016-10-29T09:12:53.077Z,930.56
2016-10-29T09:14:06.039Z,930.63
2016-10-29T09:15:19.526Z,930.63
2016-10-29T09:16:33.118Z,930.69
2016-10-29T09:17:46.129Z,930.69
2016-10-29T09:18:59.650Z,930.74
2016-10-29T09:20:12.644Z,930.78
2016-10-29T09:21:24.590Z,930.7
2016-10-29T09:22:37.579Z,930.8
2016-10-29T09:23:50.590Z,930.77
2016-10-29T09:25:04.163Z,930.79
2016-10-29T09:26:17.189Z,930.9
2016-10-29T09:27:30.666Z,930.92
2016-10-29T09:28:43.681Z,930.93
2016-10-29T09:29:57.239Z,930.92
2016-10-29T09:31:09.723Z,930.94
2016-10-29T09:32:22.699Z,930.94
2016-10-29T09:33:35.680Z,930.78
2016-10-29T09:34:49.262Z,931.04
2016-10-29T09:36:01.789Z,931.03
2016-10-29T09:37:14.808Z,930.95
2016-10-29T09:38:28.318Z,931.07
2016-10-29T09:39:41.866Z,931.01
2016-10-29T09:40:55.400Z,931.04
2016-10-29T09:42:08.934Z,930.89
2016-10-29T09:43:21.920Z,931.03
2016-10-29T09:44:34.415Z,931.13
2016-10-29T09:45:47.978Z,931.16
2016-10-29T09:47:01.512Z,931.13
2016-10-29T09:48:14.563Z,931.19
2016-10-29T09:49:28.170Z,931.08
2016-10-29T09:50:41.626Z,930.94
2016-10-29T09:51:55.141Z,931.04
2016-10-29T09:53:07.621Z,931.27
2016-10-29T09:54:21.190Z,931.31
2016-10-29T09:55:33.138Z,931.21
2016-10-29T09:56:46.156Z,931.27
2016-10-29T09:57:59.162Z,930.92
2016-10-29T09:59:12.682Z,931.01
2016-10-29T10:00:26.203Z,930.99
2016-10-29T10:01:39.798Z,931.1
2016-10-29T10:02:53.366Z,930.94
2016-10-29T10:04:06.395Z,931.02
2016-10-29T10:05:19.955Z,931.09
2016-10-29T10:06:32.975Z,931.09
2016-10-29T10:07:46.490Z,931.01
2016-10-29T10:08:58.473Z,931.15
2016-10-29T10:10:10.971Z,931.13
2016-10-29T10:11:23.436Z,931.25
2016-10-29T10:12:36.399Z,931.18
2016-10-29T10:13:49.917Z,931.32
2016-10-29T10:15:02.385Z,931.19
2016-10-29T10:16:15.399Z,931.29
2016-10-29T10:17:28.442Z,931.21
2016-10-29T10:18:41.425Z,931.22
2016-10-29T10:19:54.391Z,931.19
2016-10-29T10:21:07.981Z,931.21
2016-10-29T10:22:21.065Z,931.52
2016-10-29T10:23:34.126Z,931.58
2016-10-29T10:24:47.109Z,931.6
2016-10-29T10:26:00.648Z,931.63
2016-10-29T10:27:12.639Z,931.64
2016-10-29T10:28:25.698Z,931.73
2016-10-29T10:29:38.173Z,931.54
2016-10-29T10:30:51.193Z,931.51
2016-10-29T10:32:04.175Z,931.69
2016-10-29T10:33:16.654Z,931.5
2016-10-29T10:34:29.135Z,931.41
2016-10-29T10:35:41.072Z,931.38
2016-10-29T10:36:54.088Z,931.48
2016-10-29T10:38:07.134Z,931.38
2016-10-29T10:39:20.093Z,931.41
2016-10-29T10:40:33.043Z,931.41
2016-10-29T10:41:46.634Z,931.35
2016-10-29T10:43:00.136Z,931.39
2016-10-29T10:44:13.185Z,931.38
2016-10-29T10:45:25.625Z,931.47
2016-10-29T10:46:39.375Z,931.64
2016-10-29T10:47:51.817Z,931.74
2016-10-29T10:49:04.368Z,931.83
2016-10-29T10:50:17.880Z,931.5
2016-10-29T10:51:30.906Z,931.59
2016-10-29T10:52:44.476Z,931.49
2016-10-29T10:53:57.505Z,931.49
2016-10-29T10:55:10.996Z,931.81
2016-10-29T10:56:23.459Z,931.59
2016-10-29T10:57:37.016Z,931.51
2016-10-29T10:58:50.514Z,931.55
2016-10-29T11:00:03.474Z,931.59
2016-10-29T11:01:16.446Z,932
2016-10-29T11:02:29.998Z,931.73
2016-10-29T11:03:43.545Z,931.58
2016-10-29T11:04:56.513Z,931.57
2016-10-29T11:06:09.602Z,931.67
2016-10-29T11:07:22.564Z,931.98
2016-10-29T11:08:36.074Z,931.71
2016-10-29T11:09:49.540Z,931.65
2016-10-29T11:11:02.570Z,931.98
2016-10-29T11:12:16.106Z,932.05
2016-10-29T11:13:29.086Z,932.01
2016-10-29T11:14:42.046Z,931.88
2016-10-29T11:15:53.502Z,932.11
2016-10-29T11:17:05.491Z,932.03
2016-10-29T11:18:18.429Z,931.84
2016-10-29T11:19:31.889Z,932.12
2016-10-29T11:20:44.944Z,932.15
2016-10-29T11:21:57.996Z,931.97
2016-10-29T11:23:10.984Z,931.92
2016-10-29T11:24:24.476Z,932.19
2016-10-29T11:25:38.045Z,931.92
2016-10-29T11:26:51.055Z,932.06
2016-10-29T11:28:04.091Z,932.17
2016-10-29T11:29:17.111Z,932.07
2016-10-29T11:30:30.616Z,932.23
2016-10-29T11:31:44.147Z,932.38
2016-10-29T11:32:57.132Z,932.32
2016-10-29T11:34:09.108Z,932.36
2016-10-29T11:35:22.736Z,932.05
2016-10-29T11:36:35.790Z,932.17
2016-10-29T11:37:47.245Z,932.27
2016-10-29T11:39:00.778Z,932.02
2016-10-29T11:40:13.771Z,932.25
2016-10-29T11:41:26.764Z,932.04
2016-10-29T11:42:40.343Z,932.13
2016-10-29T11:43:51.774Z,931.96
2016-10-29T11:45:05.305Z,932.19
2016-10-29T11:46:18.301Z,932.18
2016-10-29T11:47:30.782Z,932.09
2016-10-29T11:48:42.696Z,932.18
2016-10-29T11:49:55.714Z,932.08
2016-10-29T11:51:08.764Z,932.39
2016-10-29T11:52:21.213Z,932.32
2016-10-29T11:53:33.709Z,932.4
2016-10-29T11:54:47.224Z,932.4
2016-10-29T11:55:59.715Z,932.41
2016-10-29T11:57:13.339Z,932.48
2016-10-29T11:58:25.828Z,932.41
2016-10-29T11:59:38.819Z,932.38
2016-10-29T12:00:51.407Z,932.39
2016-10-29T12:02:04.375Z,932.46
2016-10-29T12:03:16.363Z,932.5
2016-10-29T12:04:28.897Z,932.57
2016-10-29T12:05:42.477Z,932.6
2016-10-29T12:06:55.480Z,932.52
2016-10-29T12:08:08.510Z,932.48
2016-10-29T12:09:20.901Z,932.55
2016-10-29T12:10:33.471Z,932.58
2016-10-29T12:11:47.021Z,932.63
2016-10-29T12:12:59.492Z,932.57
2016-10-29T12:14:12.471Z,932.57
2016-10-29T12:15:26.015Z,932.67
2016-10-29T12:16:39.033Z,932.58
2016-10-29T12:17:51.523Z,932.57
2016-10-29T12:19:05.035Z,932.62
2016-10-29T12:20:18.641Z,932.61
2016-10-29T12:21:31.663Z,932.57
2016-10-29T12:22:44.107Z,932.57
2016-10-29T12:23:56.602Z,932.63
2016-10-29T12:25:09.602Z,932.67
2016-10-29T12:26:22.592Z,932.62
2016-10-29T12:27:36.106Z,932.73
2016-10-29T12:28:49.058Z,932.58
2016-10-29T12:30:02.065Z,932.59
2016-10-29T12:31:14.548Z,932.51
2016-10-29T12:32:27.566Z,932.59
2016-10-29T12:33:40.607Z,932.55
2016-10-29T12:34:53.020Z,932.61
2016-10-29T12:36:06.547Z,932.57
2016-10-29T12:37:20.152Z,932.61
2016-10-29T12:38:33.158Z,932.52
2016-10-29T12:39:45.610Z,932.54
2016-10-29T12:40:58.599Z,932.53
2016-10-29T12:42:11.606Z,932.46
2016-10-29T12:43:24.858Z,932.68
2016-10-29T12:44:37.340Z,932.57
2016-10-29T12:45:49.807Z,932.43
2016-10-29T12:47:03.283Z,932.39
2016-10-29T12:48:15.801Z,932.44
2016-10-29T12:49:28.854Z,932.47
2016-10-29T12:50:40.860Z,932.48
2016-10-29T12:51:53.861Z,932.48
2016-10-29T12:53:06.334Z,932.53
2016-10-29T12:54:19.358Z,932.59
2016-10-29T12:55:32.410Z,932.63
2016-10-29T12:56:44.394Z,932.67
2016-10-29T12:57:57.961Z,932.57
2016-10-29T12:59:09.936Z,932.7
2016-10-29T13:00:22.953Z,932.59
2016-10-29T13:01:35.926Z,932.62
2016-10-29T13:02:47.904Z,932.67
2016-10-29T13:04:00.893Z,932.59
2016-10-29T13:05:13.353Z,932.46
2016-10-29T13:06:25.323Z,932.55
2016-10-29T13:07:36.772Z,932.57
2016-10-29T13:08:49.764Z,932.4
2016-10-29T13:10:02.806Z,932.5
2016-10-29T13:11:14.813Z,932.49
2016-10-29T13:12:27.264Z,932.38
2016-10-29T13:13:39.687Z,932.5
2016-10-29T13:14:53.232Z,932.51
2016-10-29T13:16:06.771Z,932.48
2016-10-29T13:17:19.712Z,932.45
2016-10-29T13:18:32.730Z,932.43
2016-10-29T13:19:45.262Z,932.54
2016-10-29T13:20:58.773Z,932.61
2016-10-29T13:22:11.750Z,932.5
2016-10-29T13:23:25.322Z,932.57
2016-10-29T13:24:37.816Z,932.45
2016-10-29T13:25:50.813Z,932.41
2016-10-29T13:27:03.255Z,932.69
2016-10-29T13:28:16.798Z,932.51
2016-10-29T13:29:29.849Z,932.59
2016-10-29T13:30:42.856Z,932.62
2016-10-29T13:31:55.370Z,932.56
2016-10-29T13:33:08.415Z,932.43
2016-10-29T13:34:21.967Z,932.66
2016-10-29T13:35:33.981Z,932.48
2016-10-29T13:36:46.468Z,932.5
2016-10-29T13:37:59.979Z,932.45
2016-10-29T13:39:12.955Z,932.46
2016-10-29T13:40:25.502Z,932.31
2016-10-29T13:41:38.536Z,932.35
2016-10-29T13:42:51.490Z,932.33
2016-10-29T13:44:03.964Z,932.41
2016-10-29T13:45:16.995Z,932.27
2016-10-29T13:46:28.967Z,932.28
2016-10-29T13:47:41.933Z,932.4
2016-10-29T13:48:55.554Z,932.55
2016-10-29T13:50:08.604Z,932.38
2016-10-29T13:51:20.602Z,932.29
2016-10-29T13:52:33.072Z,932.28
2016-10-29T13:53:46.610Z,932.33
2016-10-29T13:54:59.041Z,932.19
2016-10-29T13:56:12.029Z,932.28
2016-10-29T13:57:25.548Z,932.25
2016-10-29T13:58:38.488Z,932.23
2016-10-29T13:59:50.987Z,932.29
2016-10-29T14:01:04.026Z,932.29
2016-10-29T14:02:16.977Z,932.29
2016-10-29T14:03:29.989Z,932.23
2016-10-29T14:04:43.615Z,932.24
2016-10-29T14:05:55.538Z,932.25
2016-10-29T14:07:09.109Z,932.21
2016-10-29T14:08:22.580Z,932.1
2016-10-29T14:09:36.148Z,932.25
2016-10-29T14:10:48.600Z,932.21
2016-10-29T14:12:02.142Z,932.17
2016-10-29T14:13:15.160Z,932.09
2016-10-29T14:14:28.653Z,932.22
2016-10-29T14:15:42.241Z,932.17
2016-10-29T14:16:56.122Z,932.12
2016-10-29T14:18:09.643Z,932.11
2016-10-29T14:19:22.692Z,932.11
2016-10-29T14:20:35.762Z,932.06
2016-10-29T14:21:48.712Z,932.1
2016-10-29T14:23:02.268Z,932.04
2016-10-29T14:24:15.796Z,932.03
2016-10-29T14:25:28.816Z,932.16
2016-10-29T14:26:41.775Z,932.14
2016-10-29T14:27:54.744Z,932.06
2016-10-29T14:29:08.268Z,932.09
2016-10-29T14:30:21.296Z,932.33
2016-10-29T14:31:34.215Z,932.15
2016-10-29T14:32:47.305Z,932.09
2016-10-29T14:33:59.233Z,932.01
2016-10-29T14:35:12.251Z,931.89
2016-10-29T14:36:25.252Z,932.08
2016-10-29T14:37:37.709Z,932.04
2016-10-29T14:38:50.678Z,931.98
2016-10-29T14:40:04.181Z,932.05
2016-10-29T14:41:17.725Z,932.07
2016-10-29T14:42:30.834Z,932.16
2016-10-29T14:43:44.300Z,931.98
2016-10-29T14:44:56.824Z,931.96
2016-10-29T14:46:09.898Z,932.03
2016-10-29T14:47:22.931Z,932.02
2016-10-29T14:48:36.441Z,931.99
2016-10-29T14:49:48.925Z,932.06
2016-10-29T14:51:33.606Z,931.97
2016-10-29T14:52:47.048Z,932.08
2016-10-29T14:54:00.040Z,931.96
2016-10-29T14:55:13.645Z,931.96
2016-10-29T14:56:26.657Z,931.82
2016-10-29T14:57:39.099Z,932.1
2016-10-29T14:58:51.595Z,931.9
2016-10-29T15:00:04.610Z,931.8
2016-10-29T15:01:17.016Z,931.87
2016-10-29T15:02:30.596Z,931.9
2016-10-29T15:03:44.149Z,931.98
2016-10-29T15:04:57.152Z,931.85
2016-10-29T15:06:10.215Z,931.79
2016-10-29T15:07:23.247Z,931.85
2016-10-29T15:08:35.743Z,931.82
2016-10-29T15:09:48.242Z,931.82
2016-10-29T15:11:31.358Z,931.79
2016-10-29T15:12:44.874Z,931.77
2016-10-29T15:13:57.347Z,931.89
2016-10-29T15:15:09.813Z,931.96
2016-10-29T15:16:22.864Z,931.87
2016-10-29T15:17:36.457Z,931.87
2016-10-29T15:18:49.962Z,931.86